sensor_id;sensor_type;location;lat;lon;timestamp;P1;durP1;ratioP1;P2;durP2;ratioP2
47749;SDS011;49810;48.160;10.812;2023-06-22T00:00:25;17.10;;;8.35;;
47749;SDS011;49810;48.160;10.812;2023-06-22T00:02:55;17.88;;;7.70;;
47749;SDS011;49810;48.160;10.812;2023-06-22T00:05:23;17.50;;;8.07;;
47749;SDS011;49810;48.160;10.812;2023-06-22T00:07:51;13.50;;;7.90;;
47749;SDS011;49810;48.160;10.812;2023-06-22T00:10:19;17.95;;;8.57;;
47749;SDS011;49810;48.160;10.812;2023-06-22T00:12:47;17.50;;;7.32;;
47749;SDS011;49810;48.160;10.812;2023-06-22T00:15:15;13.40;;;8.02;;
47749;SDS011;49810;48.160;10.812;2023-06-22T00:17:43;16.13;;;7.65;;
47749;SDS011;49810;48.160;10.812;2023-06-22T00:20:13;14.93;;;7.57;;
47749;SDS011;49810;48.160;10.812;2023-06-22T00:22:41;16.88;;;7.55;;
47749;SDS011;49810;48.160;10.812;2023-06-22T00:25:09;14.45;;;7.75;;
47749;SDS011;49810;48.160;10.812;2023-06-22T00:27:37;16.30;;;7.65;;
47749;SDS011;49810;48.160;10.812;2023-06-22T00:30:06;16.88;;;7.65;;
47749;SDS011;49810;48.160;10.812;2023-06-22T00:32:34;13.85;;;7.43;;
47749;SDS011;49810;48.160;10.812;2023-06-22T00:35:02;12.90;;;7.22;;
47749;SDS011;49810;48.160;10.812;2023-06-22T00:37:34;17.10;;;8.73;;
47749;SDS011;49810;48.160;10.812;2023-06-22T00:40:02;17.40;;;8.27;;
47749;SDS011;49810;48.160;10.812;2023-06-22T00:42:31;12.25;;;7.43;;
47749;SDS011;49810;48.160;10.812;2023-06-22T00:44:59;14.50;;;7.25;;
47749;SDS011;49810;48.160;10.812;2023-06-22T00:47:27;16.55;;;8.25;;
47749;SDS011;49810;48.160;10.812;2023-06-22T00:49:55;14.25;;;7.93;;
47749;SDS011;49810;48.160;10.812;2023-06-22T00:52:24;21.10;;;8.60;;
47749;SDS011;49810;48.160;10.812;2023-06-22T00:54:57;13.10;;;8.48;;
47749;SDS011;49810;48.160;10.812;2023-06-22T00:57:29;12.33;;;7.77;;
47749;SDS011;49810;48.160;10.812;2023-06-22T00:59:57;17.88;;;8.73;;
47749;SDS011;49810;48.160;10.812;2023-06-22T01:02:28;14.27;;;7.90;;
47749;SDS011;49810;48.160;10.812;2023-06-22T01:04:57;14.80;;;8.25;;
47749;SDS011;49810;48.160;10.812;2023-06-22T01:07:26;14.25;;;8.30;;
47749;SDS011;49810;48.160;10.812;2023-06-22T01:10:03;14.15;;;7.40;;
47749;SDS011;49810;48.160;10.812;2023-06-22T01:12:33;15.13;;;8.35;;
47749;SDS011;49810;48.160;10.812;2023-06-22T01:15:04;13.75;;;8.60;;
47749;SDS011;49810;48.160;10.812;2023-06-22T01:17:37;18.17;;;8.80;;
47749;SDS011;49810;48.160;10.812;2023-06-22T01:20:10;15.88;;;8.15;;
47749;SDS011;49810;48.160;10.812;2023-06-22T01:22:41;15.98;;;8.40;;
47749;SDS011;49810;48.160;10.812;2023-06-22T01:25:18;17.45;;;8.88;;
47749;SDS011;49810;48.160;10.812;2023-06-22T01:27:50;13.75;;;8.65;;
47749;SDS011;49810;48.160;10.812;2023-06-22T01:30:22;16.95;;;7.88;;
47749;SDS011;49810;48.160;10.812;2023-06-22T01:32:51;21.52;;;8.95;;
47749;SDS011;49810;48.160;10.812;2023-06-22T01:35:20;17.02;;;8.93;;
47749;SDS011;49810;48.160;10.812;2023-06-22T01:37:49;17.80;;;8.35;;
47749;SDS011;49810;48.160;10.812;2023-06-22T01:40:17;15.68;;;8.70;;
47749;SDS011;49810;48.160;10.812;2023-06-22T01:42:47;15.05;;;7.85;;
47749;SDS011;49810;48.160;10.812;2023-06-22T01:45:16;14.27;;;8.32;;
47749;SDS011;49810;48.160;10.812;2023-06-22T01:47:46;16.13;;;8.57;;
47749;SDS011;49810;48.160;10.812;2023-06-22T01:50:14;15.38;;;7.80;;
47749;SDS011;49810;48.160;10.812;2023-06-22T01:52:42;17.17;;;8.13;;
47749;SDS011;49810;48.160;10.812;2023-06-22T01:55:10;13.98;;;8.43;;
47749;SDS011;49810;48.160;10.812;2023-06-22T01:57:39;19.40;;;8.48;;
47749;SDS011;49810;48.160;10.812;2023-06-22T02:00:07;16.75;;;8.88;;
47749;SDS011;49810;48.160;10.812;2023-06-22T02:02:45;18.83;;;8.95;;
47749;SDS011;49810;48.160;10.812;2023-06-22T02:05:17;18.88;;;8.48;;
47749;SDS011;49810;48.160;10.812;2023-06-22T02:07:46;16.63;;;9.07;;
47749;SDS011;49810;48.160;10.812;2023-06-22T02:10:17;17.00;;;8.45;;
47749;SDS011;49810;48.160;10.812;2023-06-22T02:12:46;16.10;;;7.75;;
47749;SDS011;49810;48.160;10.812;2023-06-22T02:15:15;16.85;;;8.60;;
47749;SDS011;49810;48.160;10.812;2023-06-22T02:17:46;14.15;;;8.25;;
47749;SDS011;49810;48.160;10.812;2023-06-22T02:20:16;18.73;;;8.88;;
47749;SDS011;49810;48.160;10.812;2023-06-22T02:22:44;17.38;;;8.40;;
47749;SDS011;49810;48.160;10.812;2023-06-22T02:25:12;14.45;;;8.63;;
47749;SDS011;49810;48.160;10.812;2023-06-22T02:27:40;16.35;;;8.43;;
47749;SDS011;49810;48.160;10.812;2023-06-22T02:30:08;18.95;;;9.45;;
47749;SDS011;49810;48.160;10.812;2023-06-22T02:32:38;18.67;;;8.90;;
47749;SDS011;49810;48.160;10.812;2023-06-22T02:35:09;15.73;;;8.27;;
47749;SDS011;49810;48.160;10.812;2023-06-22T02:37:38;17.60;;;8.55;;
47749;SDS011;49810;48.160;10.812;2023-06-22T02:40:08;18.80;;;8.95;;
47749;SDS011;49810;48.160;10.812;2023-06-22T02:42:37;15.73;;;8.65;;
47749;SDS011;49810;48.160;10.812;2023-06-22T02:45:05;17.30;;;8.30;;
47749;SDS011;49810;48.160;10.812;2023-06-22T02:47:33;16.27;;;9.07;;
47749;SDS011;49810;48.160;10.812;2023-06-22T02:50:01;19.25;;;9.15;;
47749;SDS011;49810;48.160;10.812;2023-06-22T02:52:33;17.00;;;9.25;;
47749;SDS011;49810;48.160;10.812;2023-06-22T02:55:03;17.60;;;9.23;;
47749;SDS011;49810;48.160;10.812;2023-06-22T02:57:31;19.73;;;9.63;;
47749;SDS011;49810;48.160;10.812;2023-06-22T02:59:59;19.63;;;8.57;;
47749;SDS011;49810;48.160;10.812;2023-06-22T03:02:29;22.95;;;9.43;;
47749;SDS011;49810;48.160;10.812;2023-06-22T03:04:57;17.48;;;9.75;;
47749;SDS011;49810;48.160;10.812;2023-06-22T03:07:28;14.98;;;9.02;;
47749;SDS011;49810;48.160;10.812;2023-06-22T03:09:57;17.05;;;9.75;;
47749;SDS011;49810;48.160;10.812;2023-06-22T03:12:26;17.27;;;9.20;;
47749;SDS011;49810;48.160;10.812;2023-06-22T03:14:54;17.55;;;9.00;;
47749;SDS011;49810;48.160;10.812;2023-06-22T03:17:22;19.92;;;10.13;;
47749;SDS011;49810;48.160;10.812;2023-06-22T03:19:50;22.95;;;10.48;;
47749;SDS011;49810;48.160;10.812;2023-06-22T03:22:18;15.30;;;9.32;;
47749;SDS011;49810;48.160;10.812;2023-06-22T03:24:48;19.85;;;10.15;;
47749;SDS011;49810;48.160;10.812;2023-06-22T03:27:16;19.02;;;9.75;;
47749;SDS011;49810;48.160;10.812;2023-06-22T03:29:45;17.73;;;9.77;;
47749;SDS011;49810;48.160;10.812;2023-06-22T03:32:13;18.77;;;10.57;;
47749;SDS011;49810;48.160;10.812;2023-06-22T03:34:41;20.42;;;9.85;;
47749;SDS011;49810;48.160;10.812;2023-06-22T03:37:13;21.25;;;10.90;;
47749;SDS011;49810;48.160;10.812;2023-06-22T03:39:43;19.88;;;10.05;;
47749;SDS011;49810;48.160;10.812;2023-06-22T03:42:11;18.83;;;9.70;;
47749;SDS011;49810;48.160;10.812;2023-06-22T03:44:39;19.52;;;10.23;;
47749;SDS011;49810;48.160;10.812;2023-06-22T03:47:08;21.45;;;10.10;;
47749;SDS011;49810;48.160;10.812;2023-06-22T03:49:36;18.25;;;9.93;;
47749;SDS011;49810;48.160;10.812;2023-06-22T03:52:04;17.95;;;10.20;;
47749;SDS011;49810;48.160;10.812;2023-06-22T03:54:32;19.48;;;10.23;;
47749;SDS011;49810;48.160;10.812;2023-06-22T03:57:05;16.08;;;9.60;;
47749;SDS011;49810;48.160;10.812;2023-06-22T03:59:33;19.85;;;10.02;;
47749;SDS011;49810;48.160;10.812;2023-06-22T04:02:00;14.93;;;9.80;;
47749;SDS011;49810;48.160;10.812;2023-06-22T04:04:29;18.40;;;10.63;;
47749;SDS011;49810;48.160;10.812;2023-06-22T04:06:58;19.10;;;11.00;;
47749;SDS011;49810;48.160;10.812;2023-06-22T04:09:25;17.95;;;10.38;;
47749;SDS011;49810;48.160;10.812;2023-06-22T04:11:53;17.33;;;9.63;;
47749;SDS011;49810;48.160;10.812;2023-06-22T04:14:21;18.67;;;9.65;;
47749;SDS011;49810;48.160;10.812;2023-06-22T04:16:49;20.38;;;10.20;;
47749;SDS011;49810;48.160;10.812;2023-06-22T04:19:17;18.02;;;9.77;;
47749;SDS011;49810;48.160;10.812;2023-06-22T04:21:46;16.98;;;10.23;;
47749;SDS011;49810;48.160;10.812;2023-06-22T04:24:15;16.90;;;9.80;;
47749;SDS011;49810;48.160;10.812;2023-06-22T04:26:43;15.68;;;8.90;;
47749;SDS011;49810;48.160;10.812;2023-06-22T04:29:12;18.63;;;9.43;;
47749;SDS011;49810;48.160;10.812;2023-06-22T04:31:40;16.23;;;9.10;;
47749;SDS011;49810;48.160;10.812;2023-06-22T04:34:08;17.88;;;9.93;;
47749;SDS011;49810;48.160;10.812;2023-06-22T04:36:36;18.63;;;10.02;;
47749;SDS011;49810;48.160;10.812;2023-06-22T04:39:06;20.67;;;10.13;;
47749;SDS011;49810;48.160;10.812;2023-06-22T04:41:36;18.08;;;10.07;;
47749;SDS011;49810;48.160;10.812;2023-06-22T04:44:09;17.95;;;9.63;;
47749;SDS011;49810;48.160;10.812;2023-06-22T04:46:37;18.38;;;10.43;;
47749;SDS011;49810;48.160;10.812;2023-06-22T04:49:06;17.88;;;10.05;;
47749;SDS011;49810;48.160;10.812;2023-06-22T04:51:38;16.92;;;8.85;;
47749;SDS011;49810;48.160;10.812;2023-06-22T04:54:09;18.75;;;9.38;;
47749;SDS011;49810;48.160;10.812;2023-06-22T04:56:38;17.55;;;9.50;;
47749;SDS011;49810;48.160;10.812;2023-06-22T04:59:07;18.67;;;9.48;;
47749;SDS011;49810;48.160;10.812;2023-06-22T05:01:39;16.67;;;8.82;;
47749;SDS011;49810;48.160;10.812;2023-06-22T05:04:07;17.77;;;9.63;;
47749;SDS011;49810;48.160;10.812;2023-06-22T05:06:37;20.20;;;9.30;;
47749;SDS011;49810;48.160;10.812;2023-06-22T05:09:06;16.42;;;9.82;;
47749;SDS011;49810;48.160;10.812;2023-06-22T05:11:36;16.13;;;9.00;;
47749;SDS011;49810;48.160;10.812;2023-06-22T05:14:04;22.20;;;10.15;;
47749;SDS011;49810;48.160;10.812;2023-06-22T05:16:32;19.63;;;9.82;;
47749;SDS011;49810;48.160;10.812;2023-06-22T05:19:00;17.83;;;9.20;;
47749;SDS011;49810;48.160;10.812;2023-06-22T05:21:30;18.50;;;9.25;;
47749;SDS011;49810;48.160;10.812;2023-06-22T05:24:00;17.90;;;9.98;;
47749;SDS011;49810;48.160;10.812;2023-06-22T05:26:30;18.60;;;9.68;;
47749;SDS011;49810;48.160;10.812;2023-06-22T05:29:02;17.08;;;9.30;;
47749;SDS011;49810;48.160;10.812;2023-06-22T05:31:30;15.57;;;8.68;;
47749;SDS011;49810;48.160;10.812;2023-06-22T05:33:58;14.68;;;8.82;;
47749;SDS011;49810;48.160;10.812;2023-06-22T05:36:26;17.77;;;9.73;;
47749;SDS011;49810;48.160;10.812;2023-06-22T05:38:55;15.73;;;8.77;;
47749;SDS011;49810;48.160;10.812;2023-06-22T05:41:23;18.75;;;9.80;;
47749;SDS011;49810;48.160;10.812;2023-06-22T05:43:51;15.40;;;9.30;;
47749;SDS011;49810;48.160;10.812;2023-06-22T05:46:20;19.77;;;8.93;;
47749;SDS011;49810;48.160;10.812;2023-06-22T05:48:48;19.63;;;9.68;;
47749;SDS011;49810;48.160;10.812;2023-06-22T05:51:16;18.65;;;9.50;;
47749;SDS011;49810;48.160;10.812;2023-06-22T05:53:44;18.33;;;9.50;;
47749;SDS011;49810;48.160;10.812;2023-06-22T05:56:16;16.88;;;9.73;;
47749;SDS011;49810;48.160;10.812;2023-06-22T05:58:43;17.55;;;9.25;;
47749;SDS011;49810;48.160;10.812;2023-06-22T06:01:11;14.50;;;8.95;;
47749;SDS011;49810;48.160;10.812;2023-06-22T06:03:40;12.88;;;9.00;;
47749;SDS011;49810;48.160;10.812;2023-06-22T06:06:08;18.38;;;8.98;;
47749;SDS011;49810;48.160;10.812;2023-06-22T06:08:37;15.57;;;9.98;;
47749;SDS011;49810;48.160;10.812;2023-06-22T06:11:05;17.15;;;9.73;;
47749;SDS011;49810;48.160;10.812;2023-06-22T06:13:33;19.50;;;9.63;;
47749;SDS011;49810;48.160;10.812;2023-06-22T06:16:01;18.20;;;9.80;;
47749;SDS011;49810;48.160;10.812;2023-06-22T06:18:29;21.88;;;9.68;;
47749;SDS011;49810;48.160;10.812;2023-06-22T06:20:58;18.15;;;9.50;;
47749;SDS011;49810;48.160;10.812;2023-06-22T06:23:26;19.73;;;9.50;;
47749;SDS011;49810;48.160;10.812;2023-06-22T06:25:54;28.25;;;9.82;;
47749;SDS011;49810;48.160;10.812;2023-06-22T06:28:22;23.77;;;9.13;;
47749;SDS011;49810;48.160;10.812;2023-06-22T06:30:50;21.02;;;10.35;;
47749;SDS011;49810;48.160;10.812;2023-06-22T06:33:18;18.67;;;9.50;;
47749;SDS011;49810;48.160;10.812;2023-06-22T06:35:50;16.95;;;8.80;;
47749;SDS011;49810;48.160;10.812;2023-06-22T06:38:19;15.10;;;8.35;;
47749;SDS011;49810;48.160;10.812;2023-06-22T06:40:47;17.40;;;9.90;;
47749;SDS011;49810;48.160;10.812;2023-06-22T06:43:15;16.25;;;9.40;;
47749;SDS011;49810;48.160;10.812;2023-06-22T06:45:43;20.77;;;10.07;;
47749;SDS011;49810;48.160;10.812;2023-06-22T06:48:11;18.98;;;9.35;;
47749;SDS011;49810;48.160;10.812;2023-06-22T06:50:39;19.75;;;9.90;;
47749;SDS011;49810;48.160;10.812;2023-06-22T06:53:07;18.95;;;9.88;;
47749;SDS011;49810;48.160;10.812;2023-06-22T06:55:36;20.42;;;10.20;;
47749;SDS011;49810;48.160;10.812;2023-06-22T06:58:04;19.02;;;9.75;;
47749;SDS011;49810;48.160;10.812;2023-06-22T07:00:34;16.20;;;9.25;;
47749;SDS011;49810;48.160;10.812;2023-06-22T07:03:02;16.33;;;9.10;;
47749;SDS011;49810;48.160;10.812;2023-06-22T07:05:30;17.35;;;8.90;;
47749;SDS011;49810;48.160;10.812;2023-06-22T07:07:58;17.23;;;9.02;;
47749;SDS011;49810;48.160;10.812;2023-06-22T07:10:26;14.35;;;8.68;;
47749;SDS011;49810;48.160;10.812;2023-06-22T07:12:56;16.85;;;9.18;;
47749;SDS011;49810;48.160;10.812;2023-06-22T07:15:24;13.38;;;8.38;;
47749;SDS011;49810;48.160;10.812;2023-06-22T07:17:53;21.60;;;9.27;;
47749;SDS011;49810;48.160;10.812;2023-06-22T07:20:20;20.05;;;9.18;;
47749;SDS011;49810;48.160;10.812;2023-06-22T07:22:48;14.75;;;9.02;;
47749;SDS011;49810;48.160;10.812;2023-06-22T07:25:16;15.98;;;9.30;;
47749;SDS011;49810;48.160;10.812;2023-06-22T07:27:44;15.98;;;9.10;;
47749;SDS011;49810;48.160;10.812;2023-06-22T07:30:14;19.45;;;9.80;;
47749;SDS011;49810;48.160;10.812;2023-06-22T07:32:43;17.00;;;9.50;;
47749;SDS011;49810;48.160;10.812;2023-06-22T07:35:11;17.05;;;9.05;;
47749;SDS011;49810;48.160;10.812;2023-06-22T07:37:39;16.13;;;8.80;;
47749;SDS011;49810;48.160;10.812;2023-06-22T07:40:07;16.67;;;8.63;;
47749;SDS011;49810;48.160;10.812;2023-06-22T07:42:35;19.35;;;8.55;;
47749;SDS011;49810;48.160;10.812;2023-06-22T07:45:04;22.08;;;9.80;;
47749;SDS011;49810;48.160;10.812;2023-06-22T07:47:33;18.17;;;8.88;;
47749;SDS011;49810;48.160;10.812;2023-06-22T07:50:03;19.42;;;9.63;;
47749;SDS011;49810;48.160;10.812;2023-06-22T07:52:31;16.05;;;7.80;;
47749;SDS011;49810;48.160;10.812;2023-06-22T07:54:59;17.33;;;8.30;;
47749;SDS011;49810;48.160;10.812;2023-06-22T07:57:27;21.52;;;7.97;;
47749;SDS011;49810;48.160;10.812;2023-06-22T08:00:00;17.17;;;8.07;;
47749;SDS011;49810;48.160;10.812;2023-06-22T08:02:39;16.90;;;8.77;;
47749;SDS011;49810;48.160;10.812;2023-06-22T08:05:08;24.02;;;8.75;;
47749;SDS011;49810;48.160;10.812;2023-06-22T08:07:48;17.23;;;8.30;;
47749;SDS011;49810;48.160;10.812;2023-06-22T08:10:18;18.45;;;8.07;;
47749;SDS011;49810;48.160;10.812;2023-06-22T08:12:48;14.27;;;8.65;;
47749;SDS011;49810;48.160;10.812;2023-06-22T08:15:17;19.98;;;9.05;;
47749;SDS011;49810;48.160;10.812;2023-06-22T08:17:46;20.33;;;8.60;;
47749;SDS011;49810;48.160;10.812;2023-06-22T08:20:14;20.17;;;8.65;;
47749;SDS011;49810;48.160;10.812;2023-06-22T08:22:43;17.55;;;8.68;;
47749;SDS011;49810;48.160;10.812;2023-06-22T08:25:11;19.27;;;8.82;;
47749;SDS011;49810;48.160;10.812;2023-06-22T08:27:40;19.83;;;7.93;;
47749;SDS011;49810;48.160;10.812;2023-06-22T08:30:09;20.17;;;8.48;;
47749;SDS011;49810;48.160;10.812;2023-06-22T08:32:38;24.60;;;8.30;;
47749;SDS011;49810;48.160;10.812;2023-06-22T08:35:11;19.95;;;8.50;;
47749;SDS011;49810;48.160;10.812;2023-06-22T08:37:41;18.45;;;8.20;;
47749;SDS011;49810;48.160;10.812;2023-06-22T08:40:09;20.08;;;8.60;;
47749;SDS011;49810;48.160;10.812;2023-06-22T08:42:39;19.88;;;8.82;;
47749;SDS011;49810;48.160;10.812;2023-06-22T08:45:09;19.17;;;8.48;;
47749;SDS011;49810;48.160;10.812;2023-06-22T08:47:37;19.50;;;8.63;;
47749;SDS011;49810;48.160;10.812;2023-06-22T08:50:05;21.45;;;8.25;;
47749;SDS011;49810;48.160;10.812;2023-06-22T08:52:36;21.92;;;8.43;;
47749;SDS011;49810;48.160;10.812;2023-06-22T08:55:05;18.85;;;8.13;;
47749;SDS011;49810;48.160;10.812;2023-06-22T08:57:35;17.38;;;8.90;;
47749;SDS011;49810;48.160;10.812;2023-06-22T09:00:05;18.92;;;8.50;;
47749;SDS011;49810;48.160;10.812;2023-06-22T09:02:41;17.92;;;8.18;;
47749;SDS011;49810;48.160;10.812;2023-06-22T09:05:10;20.85;;;9.00;;
47749;SDS011;49810;48.160;10.812;2023-06-22T09:07:40;21.50;;;8.80;;
47749;SDS011;49810;48.160;10.812;2023-06-22T09:10:10;17.30;;;7.97;;
47749;SDS011;49810;48.160;10.812;2023-06-22T09:12:39;22.17;;;9.48;;
47749;SDS011;49810;48.160;10.812;2023-06-22T09:15:07;20.02;;;8.77;;
47749;SDS011;49810;48.160;10.812;2023-06-22T09:17:42;19.77;;;8.50;;
47749;SDS011;49810;48.160;10.812;2023-06-22T09:20:10;22.05;;;9.05;;
47749;SDS011;49810;48.160;10.812;2023-06-22T09:22:41;21.10;;;8.25;;
47749;SDS011;49810;48.160;10.812;2023-06-22T09:25:12;20.25;;;9.25;;
47749;SDS011;49810;48.160;10.812;2023-06-22T09:27:40;22.25;;;8.85;;
47749;SDS011;49810;48.160;10.812;2023-06-22T09:30:09;21.60;;;8.63;;
47749;SDS011;49810;48.160;10.812;2023-06-22T09:32:37;18.67;;;7.93;;
47749;SDS011;49810;48.160;10.812;2023-06-22T09:35:06;15.50;;;8.23;;
47749;SDS011;49810;48.160;10.812;2023-06-22T09:37:36;16.00;;;8.40;;
47749;SDS011;49810;48.160;10.812;2023-06-22T09:40:06;21.85;;;8.55;;
47749;SDS011;49810;48.160;10.812;2023-06-22T09:42:40;18.20;;;8.27;;
47749;SDS011;49810;48.160;10.812;2023-06-22T09:45:09;15.55;;;7.88;;
47749;SDS011;49810;48.160;10.812;2023-06-22T09:47:37;18.02;;;8.73;;
47749;SDS011;49810;48.160;10.812;2023-06-22T09:50:06;22.35;;;9.05;;
47749;SDS011;49810;48.160;10.812;2023-06-22T09:52:35;19.30;;;8.75;;
47749;SDS011;49810;48.160;10.812;2023-06-22T09:55:09;16.25;;;7.85;;
47749;SDS011;49810;48.160;10.812;2023-06-22T09:57:37;23.77;;;8.75;;
47749;SDS011;49810;48.160;10.812;2023-06-22T10:00:06;18.55;;;9.10;;
47749;SDS011;49810;48.160;10.812;2023-06-22T10:02:38;20.00;;;8.50;;
47749;SDS011;49810;48.160;10.812;2023-06-22T10:05:06;19.98;;;8.30;;
47749;SDS011;49810;48.160;10.812;2023-06-22T10:07:35;17.23;;;8.70;;
47749;SDS011;49810;48.160;10.812;2023-06-22T10:10:07;19.98;;;8.90;;
47749;SDS011;49810;48.160;10.812;2023-06-22T10:12:36;21.65;;;8.88;;
47749;SDS011;49810;48.160;10.812;2023-06-22T10:15:04;19.40;;;8.60;;
47749;SDS011;49810;48.160;10.812;2023-06-22T10:17:34;23.40;;;8.52;;
47749;SDS011;49810;48.160;10.812;2023-06-22T10:20:02;19.15;;;8.30;;
47749;SDS011;49810;48.160;10.812;2023-06-22T10:22:33;19.63;;;8.20;;
47749;SDS011;49810;48.160;10.812;2023-06-22T10:25:01;17.00;;;8.05;;
47749;SDS011;49810;48.160;10.812;2023-06-22T10:27:29;19.33;;;8.52;;
47749;SDS011;49810;48.160;10.812;2023-06-22T10:29:59;18.88;;;9.00;;
47749;SDS011;49810;48.160;10.812;2023-06-22T10:32:27;23.25;;;8.50;;
47749;SDS011;49810;48.160;10.812;2023-06-22T10:34:55;17.90;;;8.55;;
47749;SDS011;49810;48.160;10.812;2023-06-22T10:37:25;22.30;;;8.13;;
47749;SDS011;49810;48.160;10.812;2023-06-22T10:39:54;19.70;;;7.72;;
47749;SDS011;49810;48.160;10.812;2023-06-22T10:42:22;20.98;;;8.82;;
47749;SDS011;49810;48.160;10.812;2023-06-22T10:44:51;17.20;;;8.63;;
47749;SDS011;49810;48.160;10.812;2023-06-22T10:47:21;25.88;;;9.48;;
47749;SDS011;49810;48.160;10.812;2023-06-22T10:49:49;21.63;;;9.00;;
47749;SDS011;49810;48.160;10.812;2023-06-22T10:52:17;19.85;;;8.88;;
47749;SDS011;49810;48.160;10.812;2023-06-22T10:54:45;16.52;;;8.48;;
47749;SDS011;49810;48.160;10.812;2023-06-22T10:57:13;14.43;;;8.00;;
47749;SDS011;49810;48.160;10.812;2023-06-22T10:59:41;17.90;;;8.15;;
47749;SDS011;49810;48.160;10.812;2023-06-22T11:02:10;14.45;;;8.40;;
47749;SDS011;49810;48.160;10.812;2023-06-22T11:04:39;16.10;;;8.32;;
47749;SDS011;49810;48.160;10.812;2023-06-22T11:07:09;18.00;;;8.93;;
47749;SDS011;49810;48.160;10.812;2023-06-22T11:09:38;18.20;;;8.30;;
47749;SDS011;49810;48.160;10.812;2023-06-22T11:12:06;15.90;;;8.88;;
47749;SDS011;49810;48.160;10.812;2023-06-22T11:14:35;20.77;;;9.82;;
47749;SDS011;49810;48.160;10.812;2023-06-22T11:17:03;17.45;;;8.55;;
47749;SDS011;49810;48.160;10.812;2023-06-22T11:19:32;17.40;;;8.52;;
47749;SDS011;49810;48.160;10.812;2023-06-22T11:22:01;20.67;;;8.65;;
47749;SDS011;49810;48.160;10.812;2023-06-22T11:24:29;19.48;;;9.65;;
47749;SDS011;49810;48.160;10.812;2023-06-22T11:26:57;18.42;;;8.52;;
47749;SDS011;49810;48.160;10.812;2023-06-22T11:29:25;23.30;;;9.02;;
47749;SDS011;49810;48.160;10.812;2023-06-22T11:32:04;19.17;;;9.20;;
47749;SDS011;49810;48.160;10.812;2023-06-22T11:34:33;20.58;;;10.13;;
47749;SDS011;49810;48.160;10.812;2023-06-22T11:37:04;20.35;;;9.32;;
47749;SDS011;49810;48.160;10.812;2023-06-22T11:39:33;16.55;;;9.02;;
47749;SDS011;49810;48.160;10.812;2023-06-22T11:42:08;20.08;;;8.52;;
47749;SDS011;49810;48.160;10.812;2023-06-22T11:44:37;23.35;;;8.95;;
47749;SDS011;49810;48.160;10.812;2023-06-22T11:47:05;17.27;;;9.20;;
47749;SDS011;49810;48.160;10.812;2023-06-22T11:49:33;20.30;;;9.10;;
47749;SDS011;49810;48.160;10.812;2023-06-22T11:52:01;22.25;;;9.38;;
47749;SDS011;49810;48.160;10.812;2023-06-22T11:54:30;19.42;;;9.25;;
47749;SDS011;49810;48.160;10.812;2023-06-22T11:56:58;16.88;;;8.18;;
47749;SDS011;49810;48.160;10.812;2023-06-22T11:59:26;19.13;;;8.30;;
47749;SDS011;49810;48.160;10.812;2023-06-22T12:01:54;19.55;;;8.35;;
47749;SDS011;49810;48.160;10.812;2023-06-22T12:04:22;18.00;;;9.13;;
47749;SDS011;49810;48.160;10.812;2023-06-22T12:06:52;18.77;;;8.77;;
47749;SDS011;49810;48.160;10.812;2023-06-22T12:09:20;22.65;;;8.52;;
47749;SDS011;49810;48.160;10.812;2023-06-22T12:11:49;18.67;;;9.15;;
47749;SDS011;49810;48.160;10.812;2023-06-22T12:14:17;18.40;;;8.75;;
47749;SDS011;49810;48.160;10.812;2023-06-22T12:16:45;24.48;;;8.63;;
47749;SDS011;49810;48.160;10.812;2023-06-22T12:19:13;19.00;;;8.43;;
47749;SDS011;49810;48.160;10.812;2023-06-22T12:21:41;16.75;;;8.70;;
47749;SDS011;49810;48.160;10.812;2023-06-22T12:24:12;19.08;;;7.30;;
47749;SDS011;49810;48.160;10.812;2023-06-22T12:26:40;19.98;;;8.68;;
47749;SDS011;49810;48.160;10.812;2023-06-22T12:29:09;21.08;;;8.00;;
47749;SDS011;49810;48.160;10.812;2023-06-22T12:31:37;22.40;;;8.50;;
47749;SDS011;49810;48.160;10.812;2023-06-22T12:34:06;11.73;;;7.10;;
47749;SDS011;49810;48.160;10.812;2023-06-22T12:36:34;13.77;;;7.40;;
47749;SDS011;49810;48.160;10.812;2023-06-22T12:39:02;13.50;;;7.80;;
47749;SDS011;49810;48.160;10.812;2023-06-22T12:41:30;16.35;;;7.20;;
47749;SDS011;49810;48.160;10.812;2023-06-22T12:43:58;15.93;;;8.02;;
47749;SDS011;49810;48.160;10.812;2023-06-22T12:46:28;24.60;;;8.55;;
47749;SDS011;49810;48.160;10.812;2023-06-22T12:48:57;16.98;;;6.20;;
47749;SDS011;49810;48.160;10.812;2023-06-22T12:51:26;19.27;;;7.15;;
47749;SDS011;49810;48.160;10.812;2023-06-22T12:53:54;19.33;;;6.80;;
47749;SDS011;49810;48.160;10.812;2023-06-22T12:56:22;17.27;;;7.18;;
47749;SDS011;49810;48.160;10.812;2023-06-22T12:58:50;17.75;;;6.45;;
47749;SDS011;49810;48.160;10.812;2023-06-22T13:01:19;17.90;;;7.00;;
47749;SDS011;49810;48.160;10.812;2023-06-22T13:03:48;18.63;;;6.80;;
47749;SDS011;49810;48.160;10.812;2023-06-22T13:06:16;17.05;;;6.80;;
47749;SDS011;49810;48.160;10.812;2023-06-22T13:08:44;13.98;;;6.47;;
47749;SDS011;49810;48.160;10.812;2023-06-22T13:11:15;13.65;;;6.60;;
47749;SDS011;49810;48.160;10.812;2023-06-22T13:13:44;17.17;;;6.75;;
47749;SDS011;49810;48.160;10.812;2023-06-22T13:16:12;21.55;;;7.28;;
47749;SDS011;49810;48.160;10.812;2023-06-22T13:18:40;13.90;;;6.63;;
47749;SDS011;49810;48.160;10.812;2023-06-22T13:21:09;19.08;;;6.28;;
47749;SDS011;49810;48.160;10.812;2023-06-22T13:23:37;22.13;;;6.97;;
47749;SDS011;49810;48.160;10.812;2023-06-22T13:26:07;14.30;;;5.93;;
47749;SDS011;49810;48.160;10.812;2023-06-22T13:28:35;14.48;;;5.63;;
47749;SDS011;49810;48.160;10.812;2023-06-22T13:31:03;16.20;;;5.72;;
47749;SDS011;49810;48.160;10.812;2023-06-22T13:33:34;15.98;;;5.93;;
47749;SDS011;49810;48.160;10.812;2023-06-22T13:36:02;17.55;;;6.50;;
47749;SDS011;49810;48.160;10.812;2023-06-22T13:38:35;18.08;;;6.43;;
47749;SDS011;49810;48.160;10.812;2023-06-22T13:41:05;15.77;;;6.20;;
47749;SDS011;49810;48.160;10.812;2023-06-22T13:43:33;16.02;;;5.55;;
47749;SDS011;49810;48.160;10.812;2023-06-22T13:46:00;14.27;;;5.93;;
47749;SDS011;49810;48.160;10.812;2023-06-22T13:48:28;18.98;;;6.88;;
47749;SDS011;49810;48.160;10.812;2023-06-22T13:50:56;15.07;;;5.28;;
47749;SDS011;49810;48.160;10.812;2023-06-22T13:53:24;13.98;;;6.10;;
47749;SDS011;49810;48.160;10.812;2023-06-22T13:55:54;14.00;;;6.03;;
47749;SDS011;49810;48.160;10.812;2023-06-22T13:58:22;12.85;;;5.40;;
47749;SDS011;49810;48.160;10.812;2023-06-22T14:00:50;18.25;;;6.00;;
47749;SDS011;49810;48.160;10.812;2023-06-22T14:03:20;13.93;;;6.40;;
47749;SDS011;49810;48.160;10.812;2023-06-22T14:05:48;19.20;;;6.03;;
47749;SDS011;49810;48.160;10.812;2023-06-22T14:08:16;18.55;;;6.15;;
47749;SDS011;49810;48.160;10.812;2023-06-22T14:11:05;18.92;;;6.20;;
47749;SDS011;49810;48.160;10.812;2023-06-22T14:13:33;22.98;;;7.35;;
47749;SDS011;49810;48.160;10.812;2023-06-22T14:16:02;17.02;;;6.28;;
47749;SDS011;49810;48.160;10.812;2023-06-22T14:18:31;13.55;;;6.05;;
47749;SDS011;49810;48.160;10.812;2023-06-22T14:20:59;18.10;;;6.15;;
47749;SDS011;49810;48.160;10.812;2023-06-22T14:23:27;15.02;;;5.78;;
47749;SDS011;49810;48.160;10.812;2023-06-22T14:25:55;14.98;;;5.85;;
47749;SDS011;49810;48.160;10.812;2023-06-22T14:28:24;15.27;;;5.93;;
47749;SDS011;49810;48.160;10.812;2023-06-22T14:30:52;16.77;;;5.95;;